sensor_id;sensor_type;location;lat;lon;timestamp;P1;durP1;ratioP1;P2;durP2;ratioP2
68803;SDS011;55787;52.678;13.314;2022-12-17T00:01:52;74.50;;;18.73;;
68803;SDS011;55787;52.678;13.314;2022-12-17T00:04:37;66.55;;;19.77;;
68803;SDS011;55787;52.678;13.314;2022-12-17T00:07:22;76.20;;;19.10;;
68803;SDS011;55787;52.678;13.314;2022-12-17T00:10:07;66.88;;;17.58;;
68803;SDS011;55787;52.678;13.314;2022-12-17T00:12:52;61.78;;;16.88;;
68803;SDS011;55787;52.678;13.314;2022-12-17T00:15:37;70.40;;;17.98;;
68803;SDS011;55787;52.678;13.314;2022-12-17T00:18:22;71.97;;;16.85;;
68803;SDS011;55787;52.678;13.314;2022-12-17T00:21:08;70.60;;;16.63;;
68803;SDS011;55787;52.678;13.314;2022-12-17T00:23:53;66.95;;;15.75;;
68803;SDS011;55787;52.678;13.314;2022-12-17T00:26:39;59.53;;;15.85;;
68803;SDS011;55787;52.678;13.314;2022-12-17T00:29:24;58.03;;;16.00;;
68803;SDS011;55787;52.678;13.314;2022-12-17T00:32:09;62.08;;;16.23;;
68803;SDS011;55787;52.678;13.314;2022-12-17T00:34:54;63.57;;;15.03;;
68803;SDS011;55787;52.678;13.314;2022-12-17T00:37:39;66.78;;;16.55;;
68803;SDS011;55787;52.678;13.314;2022-12-17T00:40:25;68.93;;;15.88;;
68803;SDS011;55787;52.678;13.314;2022-12-17T00:43:10;53.75;;;14.52;;
68803;SDS011;55787;52.678;13.314;2022-12-17T00:45:57;58.53;;;14.52;;
68803;SDS011;55787;52.678;13.314;2022-12-17T00:48:42;56.07;;;14.57;;
68803;SDS011;55787;52.678;13.314;2022-12-17T00:51:28;53.58;;;13.18;;
68803;SDS011;55787;52.678;13.314;2022-12-17T00:54:14;49.60;;;12.32;;
68803;SDS011;55787;52.678;13.314;2022-12-17T00:56:59;46.47;;;11.68;;
68803;SDS011;55787;52.678;13.314;2022-12-17T00:59:44;41.60;;;11.07;;
68803;SDS011;55787;52.678;13.314;2022-12-17T01:02:29;46.90;;;12.10;;
68803;SDS011;55787;52.678;13.314;2022-12-17T01:05:15;43.95;;;11.65;;
68803;SDS011;55787;52.678;13.314;2022-12-17T01:08:11;46.78;;;12.02;;
68803;SDS011;55787;52.678;13.314;2022-12-17T01:11:01;46.20;;;11.40;;
68803;SDS011;55787;52.678;13.314;2022-12-17T01:13:48;51.25;;;12.63;;
68803;SDS011;55787;52.678;13.314;2022-12-17T01:16:34;47.23;;;11.67;;
68803;SDS011;55787;52.678;13.314;2022-12-17T01:19:21;42.55;;;11.57;;
68803;SDS011;55787;52.678;13.314;2022-12-17T01:22:06;42.20;;;12.10;;
68803;SDS011;55787;52.678;13.314;2022-12-17T01:24:52;41.08;;;10.32;;
68803;SDS011;55787;52.678;13.314;2022-12-17T01:27:37;49.53;;;12.30;;
68803;SDS011;55787;52.678;13.314;2022-12-17T01:30:34;45.47;;;11.37;;
68803;SDS011;55787;52.678;13.314;2022-12-17T01:33:20;43.47;;;11.75;;
68803;SDS011;55787;52.678;13.314;2022-12-17T01:36:06;51.45;;;12.80;;
68803;SDS011;55787;52.678;13.314;2022-12-17T01:38:51;43.08;;;11.63;;
68803;SDS011;55787;52.678;13.314;2022-12-17T01:41:36;41.25;;;10.75;;
68803;SDS011;55787;52.678;13.314;2022-12-17T01:47:25;45.28;;;10.88;;
68803;SDS011;55787;52.678;13.314;2022-12-17T01:50:14;45.25;;;10.38;;
68803;SDS011;55787;52.678;13.314;2022-12-17T01:53:01;41.85;;;10.05;;
68803;SDS011;55787;52.678;13.314;2022-12-17T01:55:49;43.42;;;11.00;;
68803;SDS011;55787;52.678;13.314;2022-12-17T01:58:34;44.23;;;10.97;;
68803;SDS011;55787;52.678;13.314;2022-12-17T02:01:20;38.67;;;10.25;;
68803;SDS011;55787;52.678;13.314;2022-12-17T02:04:06;42.63;;;11.82;;
68803;SDS011;55787;52.678;13.314;2022-12-17T02:06:59;39.45;;;11.65;;
68803;SDS011;55787;52.678;13.314;2022-12-17T02:13:06;41.97;;;11.70;;
68803;SDS011;55787;52.678;13.314;2022-12-17T02:16:06;47.97;;;12.85;;
68803;SDS011;55787;52.678;13.314;2022-12-17T02:19:02;42.63;;;11.70;;
68803;SDS011;55787;52.678;13.314;2022-12-17T02:21:55;52.83;;;11.90;;
68803;SDS011;55787;52.678;13.314;2022-12-17T02:24:57;45.78;;;12.02;;
68803;SDS011;55787;52.678;13.314;2022-12-17T02:27:50;46.37;;;11.53;;
68803;SDS011;55787;52.678;13.314;2022-12-17T02:30:35;54.22;;;12.43;;
68803;SDS011;55787;52.678;13.314;2022-12-17T02:33:21;49.03;;;12.10;;
68803;SDS011;55787;52.678;13.314;2022-12-17T02:36:06;49.70;;;12.05;;
68803;SDS011;55787;52.678;13.314;2022-12-17T02:38:52;49.63;;;12.52;;
68803;SDS011;55787;52.678;13.314;2022-12-17T02:41:42;48.67;;;12.67;;
68803;SDS011;55787;52.678;13.314;2022-12-17T02:44:34;51.28;;;13.27;;
68803;SDS011;55787;52.678;13.314;2022-12-17T02:47:21;52.70;;;12.43;;
68803;SDS011;55787;52.678;13.314;2022-12-17T02:50:08;53.78;;;12.32;;
68803;SDS011;55787;52.678;13.314;2022-12-17T02:52:54;49.15;;;11.93;;
68803;SDS011;55787;52.678;13.314;2022-12-17T02:55:42;54.07;;;12.37;;
68803;SDS011;55787;52.678;13.314;2022-12-17T02:58:27;58.42;;;13.35;;
68803;SDS011;55787;52.678;13.314;2022-12-17T03:01:12;48.92;;;12.98;;
68803;SDS011;55787;52.678;13.314;2022-12-17T03:03:58;51.25;;;11.77;;
68803;SDS011;55787;52.678;13.314;2022-12-17T03:06:43;38.15;;;10.75;;
68803;SDS011;55787;52.678;13.314;2022-12-17T03:09:28;46.33;;;11.13;;
68803;SDS011;55787;52.678;13.314;2022-12-17T03:12:14;46.75;;;10.27;;
68803;SDS011;55787;52.678;13.314;2022-12-17T03:15:01;49.53;;;11.45;;
68803;SDS011;55787;52.678;13.314;2022-12-17T03:17:47;46.30;;;10.82;;
68803;SDS011;55787;52.678;13.314;2022-12-17T03:20:35;47.78;;;12.30;;
68803;SDS011;55787;52.678;13.314;2022-12-17T03:30:56;37.03;;;9.00;;
68803;SDS011;55787;52.678;13.314;2022-12-17T03:33:42;43.10;;;11.38;;
68803;SDS011;55787;52.678;13.314;2022-12-17T03:36:27;45.40;;;10.68;;
68803;SDS011;55787;52.678;13.314;2022-12-17T03:39:12;43.83;;;10.60;;
68803;SDS011;55787;52.678;13.314;2022-12-17T03:41:58;45.88;;;11.60;;
68803;SDS011;55787;52.678;13.314;2022-12-17T03:44:44;47.13;;;11.57;;
68803;SDS011;55787;52.678;13.314;2022-12-17T03:47:29;49.03;;;11.30;;
68803;SDS011;55787;52.678;13.314;2022-12-17T03:50:14;43.95;;;11.57;;
68803;SDS011;55787;52.678;13.314;2022-12-17T03:53:01;41.37;;;10.83;;
68803;SDS011;55787;52.678;13.314;2022-12-17T03:55:48;48.08;;;11.18;;
68803;SDS011;55787;52.678;13.314;2022-12-17T03:58:33;43.75;;;11.20;;
68803;SDS011;55787;52.678;13.314;2022-12-17T04:01:18;46.88;;;10.85;;
68803;SDS011;55787;52.678;13.314;2022-12-17T04:04:03;40.50;;;9.75;;
68803;SDS011;55787;52.678;13.314;2022-12-17T04:06:48;44.57;;;10.83;;
68803;SDS011;55787;52.678;13.314;2022-12-17T04:09:44;45.90;;;10.88;;
68803;SDS011;55787;52.678;13.314;2022-12-17T04:12:28;46.88;;;11.95;;
68803;SDS011;55787;52.678;13.314;2022-12-17T04:15:13;44.97;;;11.57;;
68803;SDS011;55787;52.678;13.314;2022-12-17T04:17:58;45.22;;;11.55;;
68803;SDS011;55787;52.678;13.314;2022-12-17T04:20:44;41.93;;;10.83;;
68803;SDS011;55787;52.678;13.314;2022-12-17T04:23:29;50.58;;;12.35;;
68803;SDS011;55787;52.678;13.314;2022-12-17T04:26:13;49.65;;;12.40;;
68803;SDS011;55787;52.678;13.314;2022-12-17T04:28:58;49.97;;;12.85;;
68803;SDS011;55787;52.678;13.314;2022-12-17T04:31:43;45.83;;;13.32;;
68803;SDS011;55787;52.678;13.314;2022-12-17T04:34:28;49.43;;;13.47;;
68803;SDS011;55787;52.678;13.314;2022-12-17T04:37:13;51.85;;;13.25;;
68803;SDS011;55787;52.678;13.314;2022-12-17T04:39:58;59.15;;;13.55;;
68803;SDS011;55787;52.678;13.314;2022-12-17T04:42:43;46.60;;;12.25;;
68803;SDS011;55787;52.678;13.314;2022-12-17T04:45:28;54.28;;;13.00;;
68803;SDS011;55787;52.678;13.314;2022-12-17T04:48:14;47.43;;;11.73;;
68803;SDS011;55787;52.678;13.314;2022-12-17T04:50:59;53.78;;;12.65;;
68803;SDS011;55787;52.678;13.314;2022-12-17T04:53:44;44.28;;;12.55;;
68803;SDS011;55787;52.678;13.314;2022-12-17T04:56:29;48.55;;;12.45;;
68803;SDS011;55787;52.678;13.314;2022-12-17T04:59:14;55.35;;;14.05;;
68803;SDS011;55787;52.678;13.314;2022-12-17T05:02:00;53.03;;;13.20;;
68803;SDS011;55787;52.678;13.314;2022-12-17T05:04:45;56.15;;;13.45;;
68803;SDS011;55787;52.678;13.314;2022-12-17T05:07:30;51.42;;;13.20;;
68803;SDS011;55787;52.678;13.314;2022-12-17T05:10:15;54.90;;;13.07;;
68803;SDS011;55787;52.678;13.314;2022-12-17T05:13:01;53.72;;;13.95;;
68803;SDS011;55787;52.678;13.314;2022-12-17T05:15:46;53.37;;;13.07;;
68803;SDS011;55787;52.678;13.314;2022-12-17T05:18:32;49.70;;;12.82;;
68803;SDS011;55787;52.678;13.314;2022-12-17T05:21:17;46.22;;;11.82;;
68803;SDS011;55787;52.678;13.314;2022-12-17T05:24:02;49.13;;;12.95;;
68803;SDS011;55787;52.678;13.314;2022-12-17T05:26:48;43.35;;;12.32;;
68803;SDS011;55787;52.678;13.314;2022-12-17T05:29:33;46.83;;;11.63;;
68803;SDS011;55787;52.678;13.314;2022-12-17T05:32:18;52.20;;;12.43;;
68803;SDS011;55787;52.678;13.314;2022-12-17T05:35:03;46.35;;;12.23;;
68803;SDS011;55787;52.678;13.314;2022-12-17T05:37:48;49.28;;;12.93;;
68803;SDS011;55787;52.678;13.314;2022-12-17T05:40:33;50.33;;;12.55;;
68803;SDS011;55787;52.678;13.314;2022-12-17T05:43:19;48.23;;;12.57;;
68803;SDS011;55787;52.678;13.314;2022-12-17T05:46:04;41.00;;;11.98;;
68803;SDS011;55787;52.678;13.314;2022-12-17T05:48:49;46.42;;;12.88;;
68803;SDS011;55787;52.678;13.314;2022-12-17T05:51:34;45.10;;;12.55;;
68803;SDS011;55787;52.678;13.314;2022-12-17T05:54:19;60.00;;;17.92;;
68803;SDS011;55787;52.678;13.314;2022-12-17T05:57:04;52.20;;;15.80;;
68803;SDS011;55787;52.678;13.314;2022-12-17T05:59:49;39.92;;;11.48;;
68803;SDS011;55787;52.678;13.314;2022-12-17T06:02:34;43.35;;;11.88;;
68803;SDS011;55787;52.678;13.314;2022-12-17T06:05:20;57.55;;;16.27;;
68803;SDS011;55787;52.678;13.314;2022-12-17T06:08:06;65.93;;;22.77;;
68803;SDS011;55787;52.678;13.314;2022-12-17T06:10:53;50.37;;;12.50;;
68803;SDS011;55787;52.678;13.314;2022-12-17T06:13:38;44.50;;;12.18;;
68803;SDS011;55787;52.678;13.314;2022-12-17T06:16:23;40.15;;;10.93;;
68803;SDS011;55787;52.678;13.314;2022-12-17T06:19:08;51.97;;;12.75;;
68803;SDS011;55787;52.678;13.314;2022-12-17T06:21:53;46.05;;;12.13;;
68803;SDS011;55787;52.678;13.314;2022-12-17T06:24:39;41.27;;;10.93;;
68803;SDS011;55787;52.678;13.314;2022-12-17T06:27:24;52.00;;;12.35;;
68803;SDS011;55787;52.678;13.314;2022-12-17T06:30:09;46.25;;;12.00;;
68803;SDS011;55787;52.678;13.314;2022-12-17T06:33:08;44.22;;;11.77;;
68803;SDS011;55787;52.678;13.314;2022-12-17T06:35:55;41.70;;;12.00;;
68803;SDS011;55787;52.678;13.314;2022-12-17T06:38:48;37.43;;;11.43;;
68803;SDS011;55787;52.678;13.314;2022-12-17T06:41:33;46.47;;;12.65;;
68803;SDS011;55787;52.678;13.314;2022-12-17T06:44:27;45.85;;;12.90;;
68803;SDS011;55787;52.678;13.314;2022-12-17T06:47:12;49.35;;;12.40;;
68803;SDS011;55787;52.678;13.314;2022-12-17T06:49:57;41.20;;;10.63;;
68803;SDS011;55787;52.678;13.314;2022-12-17T06:52:43;43.20;;;11.97;;
68803;SDS011;55787;52.678;13.314;2022-12-17T06:55:27;45.55;;;12.73;;
68803;SDS011;55787;52.678;13.314;2022-12-17T06:58:13;51.80;;;12.65;;
68803;SDS011;55787;52.678;13.314;2022-12-17T07:00:58;48.00;;;12.50;;
68803;SDS011;55787;52.678;13.314;2022-12-17T07:03:43;42.70;;;11.75;;
68803;SDS011;55787;52.678;13.314;2022-12-17T07:06:28;43.63;;;12.50;;
68803;SDS011;55787;52.678;13.314;2022-12-17T07:09:13;47.25;;;12.30;;
68803;SDS011;55787;52.678;13.314;2022-12-17T07:11:57;50.65;;;13.23;;
68803;SDS011;55787;52.678;13.314;2022-12-17T07:14:43;45.72;;;12.35;;
68803;SDS011;55787;52.678;13.314;2022-12-17T07:17:28;50.70;;;13.73;;
68803;SDS011;55787;52.678;13.314;2022-12-17T07:20:13;48.20;;;11.80;;
68803;SDS011;55787;52.678;13.314;2022-12-17T07:22:58;43.75;;;11.30;;
68803;SDS011;55787;52.678;13.314;2022-12-17T07:25:43;45.15;;;12.15;;
68803;SDS011;55787;52.678;13.314;2022-12-17T07:28:28;39.05;;;11.27;;
68803;SDS011;55787;52.678;13.314;2022-12-17T07:31:13;45.80;;;11.48;;
68803;SDS011;55787;52.678;13.314;2022-12-17T07:33:58;50.27;;;13.23;;
68803;SDS011;55787;52.678;13.314;2022-12-17T07:36:43;49.08;;;12.75;;
68803;SDS011;55787;52.678;13.314;2022-12-17T07:39:28;42.70;;;12.05;;
68803;SDS011;55787;52.678;13.314;2022-12-17T07:42:13;46.65;;;13.23;;
68803;SDS011;55787;52.678;13.314;2022-12-17T07:44:58;49.63;;;12.98;;
68803;SDS011;55787;52.678;13.314;2022-12-17T07:47:49;48.63;;;12.30;;
68803;SDS011;55787;52.678;13.314;2022-12-17T07:50:35;42.60;;;12.05;;
68803;SDS011;55787;52.678;13.314;2022-12-17T07:53:20;47.80;;;12.20;;
68803;SDS011;55787;52.678;13.314;2022-12-17T07:56:05;42.95;;;12.70;;
68803;SDS011;55787;52.678;13.314;2022-12-17T07:58:51;49.17;;;12.48;;
68803;SDS011;55787;52.678;13.314;2022-12-17T08:01:36;32.20;;;8.37;;
68803;SDS011;55787;52.678;13.314;2022-12-17T08:04:22;43.22;;;11.25;;
68803;SDS011;55787;52.678;13.314;2022-12-17T08:07:07;47.63;;;13.30;;
68803;SDS011;55787;52.678;13.314;2022-12-17T08:09:52;47.47;;;12.48;;
68803;SDS011;55787;52.678;13.314;2022-12-17T08:15:40;50.00;;;13.17;;
68803;SDS011;55787;52.678;13.314;2022-12-17T08:18:25;43.85;;;12.05;;
68803;SDS011;55787;52.678;13.314;2022-12-17T08:21:11;54.47;;;13.02;;
68803;SDS011;55787;52.678;13.314;2022-12-17T08:23:56;57.20;;;14.25;;
68803;SDS011;55787;52.678;13.314;2022-12-17T08:26:41;50.72;;;12.25;;
68803;SDS011;55787;52.678;13.314;2022-12-17T08:29:26;56.57;;;16.20;;
68803;SDS011;55787;52.678;13.314;2022-12-17T08:32:11;56.53;;;14.30;;
68803;SDS011;55787;52.678;13.314;2022-12-17T08:34:56;54.40;;;13.55;;
68803;SDS011;55787;52.678;13.314;2022-12-17T08:37:41;63.38;;;15.75;;
68803;SDS011;55787;52.678;13.314;2022-12-17T08:40:26;45.85;;;11.27;;
68803;SDS011;55787;52.678;13.314;2022-12-17T08:43:11;52.07;;;12.90;;
68803;SDS011;55787;52.678;13.314;2022-12-17T08:45:57;47.08;;;12.82;;
68803;SDS011;55787;52.678;13.314;2022-12-17T08:48:42;41.75;;;11.05;;
68803;SDS011;55787;52.678;13.314;2022-12-17T08:51:27;46.88;;;12.23;;
68803;SDS011;55787;52.678;13.314;2022-12-17T08:54:12;38.63;;;10.77;;
68803;SDS011;55787;52.678;13.314;2022-12-17T08:56:58;41.90;;;10.73;;
68803;SDS011;55787;52.678;13.314;2022-12-17T08:59:56;47.53;;;11.32;;
68803;SDS011;55787;52.678;13.314;2022-12-17T09:02:42;46.90;;;11.93;;
68803;SDS011;55787;52.678;13.314;2022-12-17T09:05:27;45.00;;;11.85;;
68803;SDS011;55787;52.678;13.314;2022-12-17T09:08:12;44.25;;;12.02;;
68803;SDS011;55787;52.678;13.314;2022-12-17T09:10:58;42.33;;;10.57;;
68803;SDS011;55787;52.678;13.314;2022-12-17T09:13:44;41.60;;;10.77;;
68803;SDS011;55787;52.678;13.314;2022-12-17T09:16:29;46.33;;;12.45;;
68803;SDS011;55787;52.678;13.314;2022-12-17T09:19:14;42.72;;;11.82;;
68803;SDS011;55787;52.678;13.314;2022-12-17T09:22:00;40.35;;;11.95;;
68803;SDS011;55787;52.678;13.314;2022-12-17T09:24:44;43.27;;;11.03;;
68803;SDS011;55787;52.678;13.314;2022-12-17T09:27:29;44.70;;;13.05;;
68803;SDS011;55787;52.678;13.314;2022-12-17T09:30:15;40.97;;;11.38;;
68803;SDS011;55787;52.678;13.314;2022-12-17T09:33:00;44.83;;;11.60;;
68803;SDS011;55787;52.678;13.314;2022-12-17T09:35:45;43.42;;;10.65;;
68803;SDS011;55787;52.678;13.314;2022-12-17T09:38:30;48.03;;;12.20;;
68803;SDS011;55787;52.678;13.314;2022-12-17T09:41:35;42.15;;;10.43;;
68803;SDS011;55787;52.678;13.314;2022-12-17T09:44:41;44.55;;;12.43;;
68803;SDS011;55787;52.678;13.314;2022-12-17T09:50:52;35.83;;;9.00;;
68803;SDS011;55787;52.678;13.314;2022-12-17T09:53:47;43.53;;;10.50;;
68803;SDS011;55787;52.678;13.314;2022-12-17T09:56:37;37.28;;;9.90;;
68803;SDS011;55787;52.678;13.314;2022-12-17T09:59:27;40.88;;;10.40;;
68803;SDS011;55787;52.678;13.314;2022-12-17T10:02:17;40.05;;;10.35;;
68803;SDS011;55787;52.678;13.314;2022-12-17T10:05:06;44.92;;;11.63;;
68803;SDS011;55787;52.678;13.314;2022-12-17T10:07:56;43.67;;;11.17;;
68803;SDS011;55787;52.678;13.314;2022-12-17T10:10:44;44.72;;;11.25;;
68803;SDS011;55787;52.678;13.314;2022-12-17T10:13:29;45.45;;;9.35;;
68803;SDS011;55787;52.678;13.314;2022-12-17T10:19:38;39.25;;;9.32;;
68803;SDS011;55787;52.678;13.314;2022-12-17T10:22:25;36.93;;;10.87;;
68803;SDS011;55787;52.678;13.314;2022-12-17T10:25:14;35.65;;;8.80;;
68803;SDS011;55787;52.678;13.314;2022-12-17T10:28:06;40.78;;;10.15;;
68803;SDS011;55787;52.678;13.314;2022-12-17T10:30:55;39.13;;;10.32;;
68803;SDS011;55787;52.678;13.314;2022-12-17T10:33:58;41.83;;;10.98;;
68803;SDS011;55787;52.678;13.314;2022-12-17T10:36:47;38.83;;;10.97;;
68803;SDS011;55787;52.678;13.314;2022-12-17T10:39:34;42.45;;;10.50;;
68803;SDS011;55787;52.678;13.314;2022-12-17T10:42:21;39.72;;;10.25;;
68803;SDS011;55787;52.678;13.314;2022-12-17T10:45:19;37.80;;;10.70;;
68803;SDS011;55787;52.678;13.314;2022-12-17T10:48:25;39.25;;;10.13;;
68803;SDS011;55787;52.678;13.314;2022-12-17T10:51:32;32.47;;;9.10;;
68803;SDS011;55787;52.678;13.314;2022-12-17T10:54:21;37.55;;;10.52;;
68803;SDS011;55787;52.678;13.314;2022-12-17T11:03:22;42.78;;;11.80;;
68803;SDS011;55787;52.678;13.314;2022-12-17T11:06:08;47.17;;;11.07;;
68803;SDS011;55787;52.678;13.314;2022-12-17T11:08:54;41.58;;;10.00;;
68803;SDS011;55787;52.678;13.314;2022-12-17T11:11:40;41.72;;;11.32;;
68803;SDS011;55787;52.678;13.314;2022-12-17T11:14:33;44.95;;;12.65;;
68803;SDS011;55787;52.678;13.314;2022-12-17T11:17:23;39.83;;;11.18;;
68803;SDS011;55787;52.678;13.314;2022-12-17T11:20:19;42.63;;;11.03;;
68803;SDS011;55787;52.678;13.314;2022-12-17T11:23:17;42.40;;;10.35;;
68803;SDS011;55787;52.678;13.314;2022-12-17T11:26:05;39.72;;;11.27;;
68803;SDS011;55787;52.678;13.314;2022-12-17T11:28:57;43.67;;;11.68;;
68803;SDS011;55787;52.678;13.314;2022-12-17T11:32:07;31.67;;;8.13;;
68803;SDS011;55787;52.678;13.314;2022-12-17T11:35:19;42.53;;;10.73;;
68803;SDS011;55787;52.678;13.314;2022-12-17T11:53:59;29.80;;;8.55;;
68803;SDS011;55787;52.678;13.314;2022-12-17T12:00:26;31.42;;;8.63;;
68803;SDS011;55787;52.678;13.314;2022-12-17T12:05:56;30.10;;;8.63;;
68803;SDS011;55787;52.678;13.314;2022-12-17T12:09:03;36.30;;;8.43;;
68803;SDS011;55787;52.678;13.314;2022-12-17T12:11:59;37.75;;;9.45;;
68803;SDS011;55787;52.678;13.314;2022-12-17T12:23:45;42.60;;;8.75;;
68803;SDS011;55787;52.678;13.314;2022-12-17T12:27:08;42.58;;;9.93;;
68803;SDS011;55787;52.678;13.314;2022-12-17T12:30:15;36.78;;;9.25;;
68803;SDS011;55787;52.678;13.314;2022-12-17T12:33:14;39.35;;;10.27;;
68803;SDS011;55787;52.678;13.314;2022-12-17T12:36:07;39.13;;;9.17;;
68803;SDS011;55787;52.678;13.314;2022-12-17T12:38:55;46.10;;;9.75;;
68803;SDS011;55787;52.678;13.314;2022-12-17T12:44:51;30.27;;;7.65;;
68803;SDS011;55787;52.678;13.314;2022-12-17T12:47:40;38.80;;;9.30;;
68803;SDS011;55787;52.678;13.314;2022-12-17T12:50:38;34.70;;;9.37;;
68803;SDS011;55787;52.678;13.314;2022-12-17T12:53:34;37.25;;;9.23;;
68803;SDS011;55787;52.678;13.314;2022-12-17T12:56:26;41.25;;;10.32;;
68803;SDS011;55787;52.678;13.314;2022-12-17T12:59:28;38.05;;;9.88;;
68803;SDS011;55787;52.678;13.314;2022-12-17T13:02:30;38.72;;;10.32;;
68803;SDS011;55787;52.678;13.314;2022-12-17T13:10:32;41.67;;;13.07;;
68803;SDS011;55787;52.678;13.314;2022-12-17T13:13:44;41.42;;;10.20;;
68803;SDS011;55787;52.678;13.314;2022-12-17T13:15:58;36.03;;;8.43;;
68803;SDS011;55787;52.678;13.314;2022-12-17T13:18:34;38.27;;;10.23;;
68803;SDS011;55787;52.678;13.314;2022-12-17T13:21:21;44.33;;;10.38;;
68803;SDS011;55787;52.678;13.314;2022-12-17T13:23:50;37.55;;;9.90;;
68803;SDS011;55787;52.678;13.314;2022-12-17T13:27:02;37.78;;;8.60;;
68803;SDS011;55787;52.678;13.314;2022-12-17T13:29:49;39.17;;;9.77;;
68803;SDS011;55787;52.678;13.314;2022-12-17T13:38:04;40.38;;;9.90;;
68803;SDS011;55787;52.678;13.314;2022-12-17T13:40:57;29.85;;;7.45;;
68803;SDS011;55787;52.678;13.314;2022-12-17T13:43:14;35.72;;;9.32;;
68803;SDS011;55787;52.678;13.314;2022-12-17T13:45:42;40.43;;;10.90;;
68803;SDS011;55787;52.678;13.314;2022-12-17T13:48:21;39.90;;;10.48;;
68803;SDS011;55787;52.678;13.314;2022-12-17T13:50:56;35.65;;;9.30;;
68803;SDS011;55787;52.678;13.314;2022-12-17T13:53:27;46.03;;;10.18;;
68803;SDS011;55787;52.678;13.314;2022-12-17T13:55:56;33.42;;;9.40;;
68803;SDS011;55787;52.678;13.314;2022-12-17T13:58:30;32.37;;;9.67;;
68803;SDS011;55787;52.678;13.314;2022-12-17T14:01:08;47.75;;;10.43;;
68803;SDS011;55787;52.678;13.314;2022-12-17T14:03:50;43.67;;;10.52;;
68803;SDS011;55787;52.678;13.314;2022-12-17T14:06:35;35.88;;;10.75;;
68803;SDS011;55787;52.678;13.314;2022-12-17T14:09:03;41.03;;;10.35;;
68803;SDS011;55787;52.678;13.314;2022-12-17T14:11:31;42.17;;;11.30;;
68803;SDS011;55787;52.678;13.314;2022-12-17T14:16:53;44.28;;;12.52;;
68803;SDS011;55787;52.678;13.314;2022-12-17T14:19:20;40.78;;;11.20;;
68803;SDS011;55787;52.678;13.314;2022-12-17T14:21:48;43.08;;;10.10;;
68803;SDS011;55787;52.678;13.314;2022-12-17T14:24:15;48.90;;;10.98;;
68803;SDS011;55787;52.678;13.314;2022-12-17T14:26:51;43.70;;;10.23;;
68803;SDS011;55787;52.678;13.314;2022-12-17T14:29:21;45.13;;;11.05;;
68803;SDS011;55787;52.678;13.314;2022-12-17T14:31:53;46.53;;;11.13;;
68803;SDS011;55787;52.678;13.314;2022-12-17T14:34:24;40.55;;;11.27;;
68803;SDS011;55787;52.678;13.314;2022-12-17T14:36:52;41.65;;;10.85;;
68803;SDS011;55787;52.678;13.314;2022-12-17T14:39:29;43.00;;;11.70;;
68803;SDS011;55787;52.678;13.314;2022-12-17T14:42:02;48.83;;;12.93;;
68803;SDS011;55787;52.678;13.314;2022-12-17T14:45:05;48.17;;;11.23;;
68803;SDS011;55787;52.678;13.314;2022-12-17T14:47:50;47.28;;;11.93;;
68803;SDS011;55787;52.678;13.314;2022-12-17T14:50:26;57.08;;;13.88;;
68803;SDS011;55787;52.678;13.314;2022-12-17T14:52:56;48.53;;;12.97;;
68803;SDS011;55787;52.678;13.314;2022-12-17T14:58:13;45.33;;;10.45;;
68803;SDS011;55787;52.678;13.314;2022-12-17T15:00:42;36.17;;;8.60;;
68803;SDS011;55787;52.678;13.314;2022-12-17T15:03:42;24.88;;;6.45;;
68803;SDS011;55787;52.678;13.314;2022-12-17T15:06:12;36.77;;;10.20;;
68803;SDS011;55787;52.678;13.314;2022-12-17T15:08:45;39.58;;;9.30;;
68803;SDS011;55787;52.678;13.314;2022-12-17T15:11:15;36.53;;;9.48;;
68803;SDS011;55787;52.678;13.314;2022-12-17T15:13:43;41.50;;;10.45;;
68803;SDS011;55787;52.678;13.314;2022-12-17T15:16:10;40.50;;;10.32;;
68803;SDS011;55787;52.678;13.314;2022-12-17T15:18:37;37.30;;;9.13;;
68803;SDS011;55787;52.678;13.314;2022-12-17T15:21:04;40.40;;;9.80;;
68803;SDS011;55787;52.678;13.314;2022-12-17T15:23:31;33.00;;;7.97;;
68803;SDS011;55787;52.678;13.314;2022-12-17T15:25:58;41.92;;;11.13;;
68803;SDS011;55787;52.678;13.314;2022-12-17T15:28:25;24.13;;;6.55;;
68803;SDS011;55787;52.678;13.314;2022-12-17T15:30:52;38.73;;;10.00;;
68803;SDS011;55787;52.678;13.314;2022-12-17T15:33:19;38.65;;;9.10;;
68803;SDS011;55787;52.678;13.314;2022-12-17T15:35:46;41.85;;;10.40;;
68803;SDS011;55787;52.678;13.314;2022-12-17T15:38:12;44.47;;;10.75;;
68803;SDS011;55787;52.678;13.314;2022-12-17T15:40:39;41.25;;;10.48;;
68803;SDS011;55787;52.678;13.314;2022-12-17T15:43:09;40.87;;;10.13;;
68803;SDS011;55787;52.678;13.314;2022-12-17T15:45:38;36.60;;;9.32;;
68803;SDS011;55787;52.678;13.314;2022-12-17T15:48:08;37.13;;;9.48;;
68803;SDS011;55787;52.678;13.314;2022-12-17T15:50:36;39.75;;;11.38;;
68803;SDS011;55787;52.678;13.314;2022-12-17T15:53:03;40.80;;;10.52;;
68803;SDS011;55787;52.678;13.314;2022-12-17T15:55:30;44.37;;;12.23;;
68803;SDS011;55787;52.678;13.314;2022-12-17T15:57:57;52.40;;;11.82;;
68803;SDS011;55787;52.678;13.314;2022-12-17T16:00:24;56.03;;;12.60;;
68803;SDS011;55787;52.678;13.314;2022-12-17T16:02:50;42.50;;;9.60;;
68803;SDS011;55787;52.678;13.314;2022-12-17T16:05:18;49.20;;;11.90;;
68803;SDS011;55787;52.678;13.314;2022-12-17T16:07:46;52.57;;;12.07;;
68803;SDS011;55787;52.678;13.314;2022-12-17T16:10:13;46.78;;;11.73;;
68803;SDS011;55787;52.678;13.314;2022-12-17T16:12:41;55.50;;;13.27;;
68803;SDS011;55787;52.678;13.314;2022-12-17T16:15:08;46.83;;;12.38;;
68803;SDS011;55787;52.678;13.314;2022-12-17T16:17:35;31.75;;;8.13;;
68803;SDS011;55787;52.678;13.314;2022-12-17T16:20:03;39.97;;;10.90;;
68803;SDS011;55787;52.678;13.314;2022-12-17T16:22:30;42.15;;;11.35;;
68803;SDS011;55787;52.678;13.314;2022-12-17T16:24:57;41.80;;;9.93;;
68803;SDS011;55787;52.678;13.314;2022-12-17T16:27:24;42.70;;;10.43;;
68803;SDS011;55787;52.678;13.314;2022-12-17T16:29:50;48.35;;;16.02;;
68803;SDS011;55787;52.678;13.314;2022-12-17T16:32:17;63.60;;;22.20;;
68803;SDS011;55787;52.678;13.314;2022-12-17T16:34:44;58.38;;;18.67;;
68803;SDS011;55787;52.678;13.314;2022-12-17T16:37:11;52.40;;;14.20;;
68803;SDS011;55787;52.678;13.314;2022-12-17T16:39:38;45.97;;;12.10;;
68803;SDS011;55787;52.678;13.314;2022-12-17T16:42:05;43.45;;;11.23;;
68803;SDS011;55787;52.678;13.314;2022-12-17T16:44:31;44.57;;;12.43;;
68803;SDS011;55787;52.678;13.314;2022-12-17T16:46:58;50.00;;;14.10;;
68803;SDS011;55787;52.678;13.314;2022-12-17T16:49:25;44.80;;;11.73;;
68803;SDS011;55787;52.678;13.314;2022-12-17T16:51:53;45.10;;;12.63;;
68803;SDS011;55787;52.678;13.314;2022-12-17T16:54:24;45.20;;;11.23;;
68803;SDS011;55787;52.678;13.314;2022-12-17T16:56:52;43.73;;;11.30;;
68803;SDS011;55787;52.678;13.314;2022-12-17T16:59:19;35.53;;;9.52;;
68803;SDS011;55787;52.678;13.314;2022-12-17T17:01:48;55.47;;;10.18;;
68803;SDS011;55787;52.678;13.314;2022-12-17T17:04:17;43.65;;;10.32;;
68803;SDS011;55787;52.678;13.314;2022-12-17T17:06:49;41.80;;;10.35;;